Historyczne dane pomiarowe

Dodano dane terminowe – wersja testowa.

Dane z okresu 1951-2019

Wersja bazy: 1.34 [2019-03-16, lista zmian], aktualizacja planowana na 2019-04-15

Dane meteo z obszaru Polski uzyskane na podstawie danych udostępnionych przez Instytut Meteorologii i Gospodarki Wodnej – Państwowy Instytut Badawczy.

 

Wybierz Datę:    

       

TemperaturaWilgotnośćWiatrCiśnienieOpadyŚniegCzas trwania zjawisk
 Stacja t tx tn tng RH VA  wxwx mslp ppp RRR   cm mm wxwxwxwxwxwxwx
1961-08-14 10.2 13.2 4.9- 81.5- 4.3 1.0---- 0.0------------
1961-08-13 8.1 12.1 6.2- 95.5- 8.0 1.0---- 21.0------------
1961-08-12 14.6 20.9 11.2- 93.5- 7.7 1.3---- 23.1------------
1961-08-11 21.9 29.2 16.4- 64.8- 0.3 1.7---- 1.1------------
1961-08-10 23.9 27.5 16.0- 58.5- 1.0 4.0---- 0.0------------
1961-08-09 21.0 26.3 17.3- 75.0- 4.3 1.0---- 0.0------------
1961-08-08 18.8 22.6 13.7- 81.8- 5.0 2.3---- 0.0------------
1961-08-07 20.8 26.1 15.9- 66.3- 2.7 2.3---- 0.0------------
1961-08-06 20.2 25.1 13.5- 60.8- 0.0 1.7---- 0.0------------
1961-08-05 15.8 19.3 10.6- 69.5- 4.0 1.0---- 0.0------------
1961-08-04 11.2 15.2 7.8- 82.3- 8.0 1.0---- 0.0------------
1961-08-03 12.4 17.7 9.4- 89.0- 8.0 1.0---- 21.1------------
1961-08-02 16.5 20.9 10.2- 69.8- 0.7 1.0---- 0.0------------
1961-08-01 12.7 18.1 7.3- 66.5- 3.3 3.0---- 0.0------------
1961-07-31 9.1 13.3 5.4- 87.0- 8.0 3.7---- 2.1------------
1961-07-30 6.3 8.0 5.3- 98.3- 8.0 1.7---- 49.2------------
1961-07-29 9.2 18.8 6.7- 96.0- 8.0 1.0---- 53.2------------
1961-07-28 18.1 24.1 14.4- 71.8- 6.3 3.3---- 14.9------------
1961-07-27 19.5 23.5 12.4- 48.8- 3.0 2.7---- 0.0------------
1961-07-26 12.7 17.1 5.7- 64.5- 2.7 1.7---- 0.0------------
1961-07-25 8.7 10.8 6.4- 81.3- 8.0 0.7---- 0.0------------
1961-07-24 9.5 12.4 7.6- 92.5- 8.0 0.7---- 0.6------------
1961-07-23 11.9 14.9 7.3- 90.5- 5.3 1.0---- 1.6------------
1961-07-22 11.0 15.7 8.3- 85.5- 8.0 3.3---- 4.4------------
1961-07-21 11.2 15.7 7.4- 79.0- 6.0 3.3---- 1.2------------
1961-07-20 10.0 12.2 8.1- 89.3- 8.0 1.3---- 19.2------------
1961-07-19 11.5 16.1 8.8- 80.3- 8.0 0.7---- 6.8------------
1961-07-18 11.4 15.1 6.3- 77.3- 7.0 2.7---- 0.0------------
1961-07-17 12.0 17.7 8.8- 68.5- 2.3 3.0---- 0.0------------
1961-07-16 14.3 17.7 11.1- 68.8- 5.3 5.7---- 1.0------------
1961-07-15 16.0 20.9 9.6- 64.3- 6.0 2.0---- 6.2------------
1961-07-14 11.5 14.7 7.8- 60.5- 4.0 8.3---- 0.0------------
1961-07-13 16.3 23.0 11.2- 73.0- 4.0 5.3---- 11.1------------
1961-07-12 18.3 23.1 11.7- 62.3- 3.3 1.3---- 0.0------------
1961-07-11 13.9 17.8 5.2- 62.8- 3.0 2.7---- 0.0------------
1961-07-10 10.8 16.2 6.4- 80.5- 8.0 3.3---- 7.1------------
1961-07-09 11.8 17.2 8.3- 76.3- 5.7 1.3---- 1.2------------
1961-07-08 11.9 15.2 6.6- 66.3- 4.3 1.3---- 0.0------------
1961-07-07 10.3 13.2 4.3- 69.5- 5.7 1.7---- 0.0------------
1961-07-06 9.0 12.6 5.3- 68.5- 3.3 3.7---- 0.0------------
1961-07-05 9.6 19.5 7.2- 82.5- 6.3 1.3---- 0.2------------
1961-07-04 21.8 26.6 14.6- 45.5- 4.0 2.7---- 5.4------------
1961-07-03 20.4 24.6 14.7- 52.0- 0.0 1.0---- 0.0------------
1961-07-02 18.8 22.5 12.3- 55.3- 0.0 0.3---- 0.0------------
1961-07-01 17.4 21.3 10.9- 64.3- 0.0 1.3---- 0.0------------
1961-06-30 13.9 18.3 8.2- 70.8- 0.3 2.3---- 0.0------------
1961-06-29 10.8 15.2 5.3- 74.8- 6.0 1.7---- 0.0------------
1961-06-28 9.2 21.1 7.4- 88.8- 8.0 3.0---- 4.2------------
1961-06-27 22.2 26.1 17.4- 56.3- 3.0 1.7---- 14.3------------
1961-06-26 21.2 26.5 16.5- 51.5- 4.0 1.7---- 0.0------------
1961-06-25 20.6 25.1 12.3- 46.0- 0.7 2.0---- 0.0------------
1961-06-24 16.8 21.1 11.8- 59.0- 2.0 3.7---- 0.0------------
1961-06-23 15.0 19.2 11.4- 73.0- 4.0 2.7---- 0.0------------
1961-06-22 16.7 21.1 7.8- 62.3- 4.3 1.3---- 11.3------------
1961-06-21 14.6 19.0 6.4- 61.8- 3.0 1.3---- 0.0------------
1961-06-20 11.5 15.6 9.1- 69.3- 6.3 2.0---- 0.0------------
1961-06-19 17.3 23.7 12.4- 77.0- 3.0 2.0---- 0.5------------
1961-06-18 16.7 21.0 9.9- 64.5- 2.7 1.3---- 0.0------------
1961-06-17 13.3 17.6 6.9- 63.8- 1.7 1.3---- 0.0------------
1961-06-16 10.7 15.7 5.5- 69.3- 0.7 1.3---- 0.0------------
507.4 ms

 

Źródłem pochodzenia danych jest Instytut Meteorologii i Gospodarki Wodnej – Państwowy Instytut Badawczy. Dane Instytutu Meteorologii i Gospodarki Wodnej – Państwowego Instytutu Badawczego zostały przetworzone.

Dane źródłowe można odnaleźć na stronie https://dane.imgw.pl